createdAt,value
2018-11-26T00:01:39.273Z,24.87
2018-11-26T00:04:07.464Z,23.83
2018-11-26T00:06:35.643Z,24.00
2018-11-26T00:09:03.932Z,22.77
2018-11-26T00:11:34.248Z,24.90
2018-11-26T00:14:02.439Z,24.27
2018-11-26T00:16:30.633Z,23.93
2018-11-26T00:18:58.852Z,24.47
2018-11-26T00:21:27.052Z,23.07
2018-11-26T00:23:55.223Z,22.47
2018-11-26T00:26:23.436Z,24.23
2018-11-26T00:28:51.661Z,22.80
2018-11-26T00:31:20.409Z,24.60
2018-11-26T00:33:48.640Z,26.93
2018-11-26T00:36:16.823Z,25.80
2018-11-26T00:38:45.025Z,26.30
2018-11-26T00:41:13.204Z,24.63
2018-11-26T00:43:41.404Z,24.07
2018-11-26T00:46:09.611Z,24.23
2018-11-26T00:48:37.801Z,23.60
2018-11-26T00:51:06.650Z,24.90
2018-11-26T00:53:34.888Z,24.40
2018-11-26T00:56:03.067Z,23.80
2018-11-26T00:58:31.276Z,24.67
2018-11-26T01:00:59.470Z,24.77
2018-11-26T01:03:27.695Z,25.00
2018-11-26T01:05:55.928Z,24.73
2018-11-26T01:08:24.132Z,25.07
2018-11-26T01:10:52.355Z,25.53
2018-11-26T01:13:20.561Z,25.33
2018-11-26T01:15:48.774Z,23.90
2018-11-26T01:18:16.972Z,24.07
2018-11-26T01:20:45.176Z,25.37
2018-11-26T01:23:13.379Z,24.97
2018-11-26T01:25:41.557Z,24.73
2018-11-26T01:28:09.733Z,25.00
2018-11-26T01:30:37.937Z,26.00
2018-11-26T01:33:06.284Z,26.63
2018-11-26T01:35:34.513Z,26.80
2018-11-26T01:38:02.689Z,24.00
2018-11-26T01:40:36.134Z,24.97
2018-11-26T01:43:04.338Z,24.70
2018-11-26T01:45:32.555Z,22.87
2018-11-26T01:48:00.738Z,23.93
2018-11-26T01:50:28.903Z,24.67
2018-11-26T01:52:57.076Z,26.23
2018-11-26T01:55:25.263Z,26.20
2018-11-26T01:57:53.473Z,25.93
2018-11-26T02:00:24.014Z,25.30
2018-11-26T02:02:52.242Z,24.70
2018-11-26T02:05:20.437Z,26.97
2018-11-26T02:07:48.647Z,24.50
2018-11-26T02:10:18.990Z,25.20
2018-11-26T02:12:47.220Z,24.47
2018-11-26T02:15:26.651Z,25.10
2018-11-26T02:17:54.884Z,25.03
2018-11-26T02:20:23.076Z,24.70
2018-11-26T02:22:51.298Z,25.30
2018-11-26T02:25:19.518Z,25.17
2018-11-26T02:27:47.701Z,24.90
2018-11-26T02:30:15.903Z,25.60
2018-11-26T02:32:44.101Z,25.63
2018-11-26T02:35:12.319Z,24.00
2018-11-26T02:37:40.549Z,25.00
2018-11-26T02:40:10.683Z,25.00
2018-11-26T02:42:38.885Z,25.57
2018-11-26T02:45:07.128Z,25.47
2018-11-26T02:47:35.329Z,25.10
2018-11-26T02:50:03.564Z,24.67
2018-11-26T02:52:31.784Z,25.20
2018-11-26T02:54:59.998Z,24.07
2018-11-26T02:57:28.220Z,24.60
2018-11-26T02:59:56.414Z,25.43
2018-11-26T03:02:24.591Z,23.40
2018-11-26T03:04:52.764Z,24.07
2018-11-26T03:07:20.953Z,22.90
2018-11-26T03:09:49.140Z,24.37
2018-11-26T03:12:17.304Z,23.57
2018-11-26T03:14:45.500Z,24.07
2018-11-26T03:17:13.702Z,25.33
2018-11-26T03:19:41.925Z,24.10
2018-11-26T03:22:10.101Z,25.33
2018-11-26T03:24:38.277Z,24.90
2018-11-26T03:27:06.684Z,25.67
2018-11-26T03:29:35.043Z,24.83
2018-11-26T03:32:03.236Z,26.23
2018-11-26T03:34:31.406Z,25.30
2018-11-26T03:36:59.599Z,25.73
2018-11-26T03:39:27.753Z,24.93
2018-11-26T03:41:55.929Z,24.90
2018-11-26T03:44:24.127Z,25.77
2018-11-26T03:46:52.307Z,24.93
2018-11-26T03:49:20.479Z,25.33
2018-11-26T03:51:48.630Z,25.70
2018-11-26T03:54:16.821Z,25.23
2018-11-26T03:56:45.024Z,25.77
2018-11-26T03:59:13.185Z,24.60
2018-11-26T04:01:41.422Z,24.73
2018-11-26T04:04:09.593Z,25.10
2018-11-26T04:06:37.810Z,26.97
2018-11-26T04:09:07.688Z,26.00
2018-11-26T04:11:36.255Z,26.00
2018-11-26T04:14:04.432Z,27.20
2018-11-26T04:16:32.616Z,25.37
2018-11-26T04:19:00.794Z,26.60
2018-11-26T04:21:28.968Z,24.03
2018-11-26T04:23:57.151Z,25.70
2018-11-26T04:26:25.326Z,26.17
2018-11-26T04:28:53.513Z,25.90
2018-11-26T04:31:21.684Z,25.40
2018-11-26T04:33:49.865Z,25.97
2018-11-26T04:36:18.036Z,25.00
2018-11-26T04:38:46.231Z,25.00
2018-11-26T04:41:14.432Z,25.87
2018-11-26T04:43:42.605Z,25.30
2018-11-26T04:46:10.790Z,25.57
2018-11-26T04:48:39.022Z,25.37
2018-11-26T04:51:07.277Z,24.47
2018-11-26T04:53:35.396Z,27.27
2018-11-26T04:56:03.571Z,26.23
2018-11-26T04:58:31.752Z,27.40
2018-11-26T05:00:59.947Z,26.50
2018-11-26T05:03:28.153Z,26.77
2018-11-26T05:05:56.367Z,26.57
2018-11-26T05:08:24.532Z,26.70
2018-11-26T05:10:52.727Z,26.50
2018-11-26T05:13:20.915Z,24.70
2018-11-26T05:15:49.159Z,27.53
2018-11-26T05:18:17.349Z,27.47
2018-11-26T05:20:45.760Z,25.07
2018-11-26T05:23:13.963Z,26.53
2018-11-26T05:25:42.135Z,25.83
2018-11-26T05:28:10.338Z,26.97
2018-11-26T05:30:38.502Z,27.00
2018-11-26T05:33:07.262Z,24.87
2018-11-26T05:35:35.551Z,26.23
2018-11-26T05:38:03.755Z,27.10
2018-11-26T05:40:31.911Z,25.23
2018-11-26T05:43:00.133Z,26.40
2018-11-26T05:45:28.319Z,26.33
2018-11-26T05:47:56.526Z,27.10
2018-11-26T05:50:24.732Z,26.10
2018-11-26T05:52:52.951Z,27.70
2018-11-26T05:55:21.385Z,25.83
2018-11-26T05:57:49.507Z,26.73
2018-11-26T06:00:27.264Z,25.70
2018-11-26T06:02:55.479Z,26.67
2018-11-26T06:05:23.657Z,27.40
2018-11-26T06:07:51.827Z,25.80
2018-11-26T06:10:20.020Z,26.20
2018-11-26T06:12:48.228Z,26.27
2018-11-26T06:15:16.421Z,25.90
2018-11-26T06:17:44.617Z,25.77
2018-11-26T06:20:13.411Z,25.57
2018-11-26T06:22:43.087Z,28.53
2018-11-26T06:25:13.868Z,27.50
2018-11-26T06:27:48.600Z,26.07
2018-11-26T06:30:18.010Z,27.50
2018-11-26T06:32:46.169Z,27.83
2018-11-26T06:35:16.468Z,28.50
2018-11-26T06:37:44.665Z,30.10
2018-11-26T06:40:13.448Z,28.83
2018-11-26T06:42:41.661Z,30.37
2018-11-26T06:45:13.296Z,29.60
2018-11-26T06:47:42.093Z,28.40
2018-11-26T06:50:11.912Z,28.27
2018-11-26T06:52:40.182Z,29.83
2018-11-26T06:55:10.283Z,28.90
2018-11-26T06:57:38.513Z,29.17
2018-11-26T07:00:10.153Z,29.60
2018-11-26T07:02:38.444Z,30.10
2018-11-26T07:05:12.173Z,28.63
2018-11-26T07:07:40.367Z,29.40
2018-11-26T07:10:09.581Z,27.87
2018-11-26T07:12:37.820Z,29.97
2018-11-26T07:15:08.404Z,28.77
2018-11-26T07:17:36.595Z,26.30
2018-11-26T07:20:07.180Z,29.90
2018-11-26T07:22:35.356Z,28.30
2018-11-26T07:25:03.588Z,27.37
2018-11-26T07:27:31.765Z,29.30
2018-11-26T07:29:59.964Z,30.23
2018-11-26T07:32:28.140Z,29.73
2018-11-26T07:34:56.339Z,29.57
2018-11-26T07:37:24.508Z,27.97
2018-11-26T07:39:52.691Z,27.47
2018-11-26T07:42:20.882Z,28.70
2018-11-26T07:44:49.091Z,27.23
2018-11-26T07:47:17.353Z,27.23
2018-11-26T07:49:45.516Z,29.90
2018-11-26T07:52:13.732Z,28.43
2018-11-26T07:54:41.932Z,29.13
2018-11-26T07:57:10.134Z,30.27
2018-11-26T07:59:38.316Z,30.60
2018-11-26T08:02:06.536Z,30.00
2018-11-26T08:04:34.725Z,33.43
2018-11-26T08:07:02.925Z,30.43
2018-11-26T08:09:31.147Z,31.03
2018-11-26T08:11:59.345Z,30.73
2018-11-26T08:14:27.535Z,31.33
2018-11-26T08:16:55.712Z,29.73
2018-11-26T08:19:23.883Z,31.90
2018-11-26T08:21:52.059Z,32.67
2018-11-26T08:24:20.246Z,30.90
2018-11-26T08:26:48.427Z,31.10
2018-11-26T08:29:16.624Z,31.53
2018-11-26T08:31:44.805Z,30.20
2018-11-26T08:34:13.037Z,31.70
2018-11-26T08:36:43.213Z,29.43
2018-11-26T08:39:16.599Z,33.47
2018-11-26T08:41:50.166Z,32.13
2018-11-26T08:46:25.461Z,32.50
2018-11-26T08:48:58.915Z,32.83
2018-11-26T08:51:27.184Z,34.70
2018-11-26T08:53:55.345Z,34.00
2018-11-26T08:56:23.637Z,33.10
2018-11-26T08:58:51.830Z,33.90
2018-11-26T09:01:24.229Z,33.10
2018-11-26T09:03:56.388Z,32.10
2018-11-26T09:06:24.695Z,34.00
2018-11-26T09:08:52.875Z,32.30
2018-11-26T09:11:21.109Z,33.60
2018-11-26T09:13:49.327Z,31.40
2018-11-26T09:16:17.552Z,30.87
2018-11-26T09:18:45.773Z,33.27
2018-11-26T09:21:13.999Z,33.00
2018-11-26T09:23:42.176Z,31.23
2018-11-26T09:26:10.372Z,32.50
2018-11-26T09:28:38.559Z,31.90
2018-11-26T09:31:06.777Z,30.63
2018-11-26T09:33:35.008Z,31.30
2018-11-26T09:36:03.225Z,31.57
2018-11-26T09:38:31.412Z,30.87
2018-11-26T09:40:59.589Z,30.00
2018-11-26T09:43:27.816Z,31.10
2018-11-26T09:45:55.988Z,30.73
2018-11-26T09:48:24.195Z,28.87
2018-11-26T09:50:52.400Z,30.17
2018-11-26T09:53:20.579Z,28.53
2018-11-26T09:55:48.848Z,28.60
2018-11-26T09:58:17.073Z,28.63
2018-11-26T10:00:45.265Z,28.83
2018-11-26T10:03:13.467Z,29.53
2018-11-26T10:05:41.681Z,28.07
2018-11-26T10:08:09.828Z,29.87
2018-11-26T10:10:38.002Z,29.87
2018-11-26T10:13:07.027Z,28.47
2018-11-26T10:15:35.191Z,31.30
2018-11-26T10:18:03.369Z,28.40
2018-11-26T10:20:31.543Z,28.17
2018-11-26T10:22:59.703Z,29.80
2018-11-26T10:25:27.879Z,28.50
2018-11-26T10:27:56.057Z,28.50
2018-11-26T10:30:24.722Z,29.60
2018-11-26T10:32:53.511Z,28.40
2018-11-26T10:35:22.079Z,28.17
2018-11-26T10:37:50.239Z,28.50
2018-11-26T10:40:26.217Z,26.83
2018-11-26T10:42:54.502Z,27.07
2018-11-26T10:45:23.723Z,27.47
2018-11-26T10:47:51.974Z,27.30
2018-11-26T10:50:21.836Z,26.50
2018-11-26T10:52:51.353Z,27.83
2018-11-26T10:55:20.861Z,27.53
2018-11-26T10:57:49.031Z,27.60
2018-11-26T11:00:22.701Z,27.03
2018-11-26T11:02:51.464Z,26.93
2018-11-26T11:05:19.693Z,27.27
2018-11-26T11:07:47.932Z,29.30
2018-11-26T11:10:17.621Z,26.50
2018-11-26T11:12:45.845Z,28.50
2018-11-26T11:15:14.176Z,27.60
2018-11-26T11:17:42.426Z,27.93
2018-11-26T11:20:15.687Z,28.03
2018-11-26T11:22:43.948Z,29.90
2018-11-26T11:25:13.132Z,29.27
2018-11-26T11:27:41.472Z,29.93
2018-11-26T11:30:14.985Z,29.20
2018-11-26T11:32:43.231Z,28.80
2018-11-26T11:35:13.176Z,27.70
2018-11-26T11:37:42.019Z,30.20
2018-11-26T11:40:23.089Z,30.97
2018-11-26T11:42:51.273Z,30.40
2018-11-26T11:45:19.706Z,29.73
2018-11-26T11:47:47.953Z,30.77
2018-11-26T11:50:18.425Z,30.13
2018-11-26T11:52:46.802Z,30.90
2018-11-26T11:55:16.035Z,30.07
2018-11-26T11:57:44.233Z,30.93
2018-11-26T12:00:22.268Z,31.57
2018-11-26T12:02:50.512Z,31.50
2018-11-26T12:05:18.680Z,31.80
2018-11-26T12:07:46.851Z,31.00
2018-11-26T12:10:15.026Z,32.60
2018-11-26T12:12:43.189Z,33.03
2018-11-26T12:15:15.625Z,34.63
2018-11-26T12:17:44.452Z,33.80
2018-11-26T12:20:13.539Z,32.10
2018-11-26T12:22:42.073Z,31.50
2018-11-26T12:25:17.313Z,32.80
2018-11-26T12:27:45.508Z,31.07
2018-11-26T12:30:15.781Z,32.80
2018-11-26T12:32:43.977Z,32.87
2018-11-26T12:35:12.173Z,34.80
2018-11-26T12:37:40.342Z,32.73
2018-11-26T12:40:16.403Z,34.27
2018-11-26T12:42:44.582Z,32.70
2018-11-26T12:45:17.438Z,32.37
2018-11-26T12:47:45.688Z,32.20
2018-11-26T12:50:13.870Z,32.80
2018-11-26T12:52:43.214Z,33.63
2018-11-26T12:55:13.697Z,30.90
2018-11-26T12:57:42.785Z,32.30
2018-11-26T13:00:16.110Z,30.97
2018-11-26T13:02:45.168Z,33.63
2018-11-26T13:05:15.614Z,32.10
2018-11-26T13:07:43.801Z,32.57
2018-11-26T13:10:13.894Z,32.17
2018-11-26T13:12:42.173Z,31.40
2018-11-26T13:15:14.269Z,31.70
2018-11-26T13:17:42.476Z,32.10
2018-11-26T13:20:14.386Z,30.87
2018-11-26T13:22:42.625Z,33.20
2018-11-26T13:25:11.941Z,30.87
2018-11-26T13:27:41.636Z,33.50
2018-11-26T13:30:14.840Z,31.93
2018-11-26T13:32:44.054Z,32.07
2018-11-26T13:35:13.357Z,33.53
2018-11-26T13:37:41.534Z,31.57
2018-11-26T13:40:11.916Z,31.60
2018-11-26T13:42:40.393Z,32.00
2018-11-26T13:45:11.164Z,32.47
2018-11-26T13:47:39.641Z,31.23
2018-11-26T13:50:13.460Z,31.13
2018-11-26T13:52:41.705Z,31.70
2018-11-26T13:55:11.708Z,28.80
2018-11-26T13:57:39.889Z,29.27
2018-11-26T14:00:10.000Z,31.30
2018-11-26T14:02:38.303Z,30.10
2018-11-26T14:05:08.271Z,30.93
2018-11-26T14:07:36.521Z,31.47
2018-11-26T14:10:07.138Z,32.43
2018-11-26T14:12:35.309Z,31.37
2018-11-26T14:15:03.549Z,30.90
2018-11-26T14:17:31.811Z,32.60
2018-11-26T14:19:59.969Z,31.20
2018-11-26T14:22:28.271Z,31.90
2018-11-26T14:24:56.470Z,33.00
2018-11-26T14:27:24.769Z,31.07
2018-11-26T14:29:52.981Z,32.83
2018-11-26T14:32:21.507Z,32.20
2018-11-26T14:34:49.681Z,33.90
2018-11-26T14:37:17.860Z,33.33
2018-11-26T14:39:46.161Z,33.33
2018-11-26T14:42:14.346Z,35.00
2018-11-26T14:44:42.522Z,35.20
2018-11-26T14:47:11.697Z,33.43
2018-11-26T14:49:39.881Z,35.57
2018-11-26T14:52:08.069Z,36.57
2018-11-26T14:54:36.278Z,36.73
2018-11-26T14:57:04.631Z,36.00
2018-11-26T14:59:32.805Z,35.93
2018-11-26T15:02:01.768Z,36.43
2018-11-26T15:04:29.932Z,35.20
2018-11-26T15:06:58.122Z,35.53
2018-11-26T15:09:26.276Z,33.97
2018-11-26T15:11:54.470Z,37.50
2018-11-26T15:14:22.700Z,34.50
2018-11-26T15:16:50.899Z,36.50
2018-11-26T15:19:19.060Z,39.07
2018-11-26T15:21:47.236Z,35.60
2018-11-26T15:24:15.390Z,38.70
2018-11-26T15:26:43.545Z,36.17
2018-11-26T15:29:11.699Z,37.83
2018-11-26T15:31:39.888Z,37.00
2018-11-26T15:34:08.092Z,37.73
2018-11-26T15:36:36.243Z,38.90
2018-11-26T15:39:06.846Z,37.37
2018-11-26T15:41:35.017Z,37.93
2018-11-26T15:44:03.206Z,38.40
2018-11-26T15:46:31.389Z,36.83
2018-11-26T15:48:59.568Z,39.00
2018-11-26T15:51:27.774Z,39.70
2018-11-26T15:53:55.965Z,39.70
2018-11-26T15:56:24.166Z,36.77
2018-11-26T15:58:52.334Z,36.17
2018-11-26T16:01:20.489Z,36.60
2018-11-26T16:03:48.648Z,37.83
2018-11-26T16:06:16.861Z,38.97
2018-11-26T16:08:45.055Z,36.87
2018-11-26T16:11:13.316Z,37.50
2018-11-26T16:13:41.494Z,37.20
2018-11-26T16:16:09.670Z,38.17
2018-11-26T16:18:37.833Z,37.90
2018-11-26T16:21:05.998Z,36.27
2018-11-26T16:23:34.151Z,39.67
2018-11-26T16:26:02.313Z,39.07
2018-11-26T16:28:30.622Z,38.00
2018-11-26T16:30:58.793Z,36.67
2018-11-26T16:33:26.964Z,36.63
2018-11-26T16:35:55.145Z,38.30
2018-11-26T16:38:23.338Z,36.07
2018-11-26T16:40:52.559Z,38.67
2018-11-26T16:43:19.677Z,37.87
2018-11-26T16:45:47.845Z,38.77
2018-11-26T16:48:16.022Z,36.60
2018-11-26T16:50:44.204Z,35.37
2018-11-26T16:53:12.390Z,36.70
2018-11-26T16:55:40.574Z,38.53
2018-11-26T16:58:08.753Z,41.37
2018-11-26T17:00:36.937Z,40.67
2018-11-26T17:03:05.295Z,37.60
2018-11-26T17:05:35.082Z,39.93
2018-11-26T17:08:03.722Z,42.07
2018-11-26T17:10:31.989Z,41.80
2018-11-26T17:13:00.214Z,41.57
2018-11-26T17:15:28.432Z,41.77
2018-11-26T17:17:56.608Z,37.37
2018-11-26T17:20:24.786Z,39.60
2018-11-26T17:22:53.089Z,41.03
2018-11-26T17:25:21.329Z,40.17
2018-11-26T17:27:49.973Z,40.17
2018-11-26T17:30:19.443Z,42.63
2018-11-26T17:32:50.146Z,38.90
2018-11-26T17:35:18.503Z,39.73
2018-11-26T17:37:46.872Z,40.07
2018-11-26T17:40:17.213Z,40.87
2018-11-26T17:42:45.494Z,39.30
2018-11-26T17:45:14.645Z,41.67
2018-11-26T17:47:46.038Z,41.73
2018-11-26T17:50:16.678Z,40.50
2018-11-26T17:52:44.857Z,40.67
2018-11-26T17:55:13.132Z,40.83
2018-11-26T17:57:41.432Z,40.50
2018-11-26T18:00:11.407Z,40.80
2018-11-26T18:02:39.627Z,38.23
2018-11-26T18:05:11.347Z,43.37
2018-11-26T18:07:39.622Z,42.60
2018-11-26T18:10:10.544Z,39.87
2018-11-26T18:12:38.728Z,38.50
2018-11-26T18:15:10.212Z,39.23
2018-11-26T18:17:38.416Z,41.43
2018-11-26T18:20:10.422Z,39.67
2018-11-26T18:22:38.594Z,41.53
2018-11-26T18:25:08.389Z,40.93
2018-11-26T18:27:36.977Z,41.03
2018-11-26T18:30:12.152Z,40.70
2018-11-26T18:32:40.346Z,38.80
2018-11-26T18:35:08.764Z,41.70
2018-11-26T18:37:36.959Z,38.43
2018-11-26T18:40:07.177Z,40.00
2018-11-26T18:42:35.338Z,39.00
2018-11-26T18:45:03.570Z,40.87
2018-11-26T18:47:31.749Z,39.17
2018-11-26T18:49:59.941Z,40.83
2018-11-26T18:52:28.104Z,43.30
2018-11-26T18:54:56.285Z,42.60
2018-11-26T18:57:24.575Z,42.37
2018-11-26T18:59:53.133Z,41.83
2018-11-26T19:02:21.947Z,40.83
2018-11-26T19:04:50.268Z,42.87
2018-11-26T19:07:18.756Z,41.37
2018-11-26T19:09:47.160Z,41.83
2018-11-26T19:12:15.562Z,41.20
2018-11-26T19:14:45.715Z,39.27
2018-11-26T19:17:14.339Z,41.53
2018-11-26T19:19:42.715Z,40.43
2018-11-26T19:22:11.155Z,40.70
2018-11-26T19:24:39.663Z,42.60
2018-11-26T19:27:08.496Z,39.07
2018-11-26T19:29:36.846Z,40.60
2018-11-26T19:32:06.046Z,40.23
2018-11-26T19:34:34.360Z,39.87
2018-11-26T19:37:02.851Z,41.93
2018-11-26T19:39:31.420Z,39.90
2018-11-26T19:41:59.848Z,40.33
2018-11-26T19:44:28.244Z,40.50
2018-11-26T19:46:56.909Z,40.30
2018-11-26T19:49:25.328Z,41.03
2018-11-26T19:51:54.089Z,42.20
2018-11-26T19:54:22.699Z,39.87
2018-11-26T19:56:51.250Z,38.73
2018-11-26T19:59:19.673Z,40.07
2018-11-26T20:01:48.024Z,41.60
2018-11-26T20:04:26.282Z,40.33
2018-11-26T20:06:54.650Z,41.57
2018-11-26T20:09:22.998Z,41.00
2018-11-26T20:11:51.356Z,39.97
2018-11-26T20:14:25.596Z,41.37
2018-11-26T20:16:48.967Z,42.10
2018-11-26T20:19:17.473Z,41.80
2018-11-26T20:21:45.673Z,42.33
2018-11-26T20:24:14.059Z,41.97
2018-11-26T20:26:42.388Z,41.00
2018-11-26T20:29:10.577Z,43.17
2018-11-26T20:31:38.935Z,41.20
2018-11-26T20:34:07.390Z,40.47
2018-11-26T20:36:35.788Z,43.60
2018-11-26T20:39:05.508Z,42.30
2018-11-26T20:41:33.873Z,42.03
2018-11-26T20:44:02.150Z,39.30
2018-11-26T20:46:30.368Z,39.90
2018-11-26T20:48:58.640Z,40.60
2018-11-26T20:51:27.053Z,39.50
2018-11-26T20:53:55.369Z,41.80
2018-11-26T20:56:23.683Z,42.50
2018-11-26T20:58:51.974Z,43.93
2018-11-26T21:01:20.174Z,39.77
2018-11-26T21:03:48.432Z,40.87
2018-11-26T21:06:16.854Z,41.63
2018-11-26T21:08:45.334Z,39.87
2018-11-26T21:11:14.948Z,41.30
2018-11-26T21:13:43.289Z,40.93
2018-11-26T21:16:12.291Z,40.87
2018-11-26T21:18:40.642Z,40.50
2018-11-26T21:21:08.937Z,39.23
2018-11-26T21:23:37.228Z,39.83
2018-11-26T21:26:07.705Z,38.77
2018-11-26T21:28:36.001Z,39.37
2018-11-26T21:31:04.235Z,38.93
2018-11-26T21:33:32.506Z,39.67
2018-11-26T21:36:00.696Z,38.93
2018-11-26T21:38:28.941Z,39.20
2018-11-26T21:40:57.154Z,38.23
2018-11-26T21:43:25.346Z,40.70
2018-11-26T21:45:56.294Z,37.80
2018-11-26T21:48:24.501Z,41.60
2018-11-26T21:50:52.698Z,38.53
2018-11-26T21:53:20.874Z,38.70
2018-11-26T21:55:49.101Z,39.10
2018-11-26T21:58:17.307Z,39.03
2018-11-26T22:00:46.064Z,38.37
2018-11-26T22:03:14.894Z,37.43
2018-11-26T22:05:43.905Z,36.63
2018-11-26T22:08:12.567Z,38.00
2018-11-26T22:10:41.922Z,38.60
2018-11-26T22:13:12.269Z,36.53
2018-11-26T22:15:40.484Z,37.27
2018-11-26T22:18:09.101Z,39.33
2018-11-26T22:20:37.305Z,38.80
2018-11-26T22:23:06.210Z,36.80
2018-11-26T22:25:34.450Z,40.17
2018-11-26T22:28:03.173Z,37.37
2018-11-26T22:30:32.684Z,38.10
2018-11-26T22:33:00.938Z,37.67
2018-11-26T22:35:29.129Z,36.87
2018-11-26T22:37:57.310Z,38.50
2018-11-26T22:40:26.420Z,39.47
2018-11-26T22:42:54.657Z,39.93
2018-11-26T22:45:23.962Z,36.53
2018-11-26T22:47:55.500Z,36.40
2018-11-26T22:50:23.706Z,37.30
2018-11-26T22:52:51.905Z,38.57
2018-11-26T22:55:20.063Z,37.53
2018-11-26T22:57:48.284Z,36.63
2018-11-26T23:00:26.630Z,38.23
2018-11-26T23:02:56.953Z,37.00
2018-11-26T23:05:25.126Z,38.80
2018-11-26T23:07:53.317Z,39.80
2018-11-26T23:10:21.548Z,37.33
2018-11-26T23:12:49.739Z,36.67
2018-11-26T23:15:18.317Z,37.13
2018-11-26T23:17:47.081Z,37.10
2018-11-26T23:20:19.142Z,39.73
2018-11-26T23:22:47.352Z,35.80
2018-11-26T23:25:16.521Z,36.10
2018-11-26T23:27:44.772Z,37.07
2018-11-26T23:30:17.924Z,37.07
2018-11-26T23:32:47.435Z,37.67
2018-11-26T23:35:15.645Z,38.20
2018-11-26T23:37:43.843Z,36.80
2018-11-26T23:40:12.778Z,37.87
2018-11-26T23:42:40.994Z,37.83
2018-11-26T23:45:13.665Z,36.40
2018-11-26T23:47:41.861Z,38.50
2018-11-26T23:50:11.084Z,37.37
2018-11-26T23:52:39.785Z,40.53
2018-11-26T23:55:09.295Z,38.53
2018-11-26T23:57:37.456Z,38.47
